sensor_id;sensor_type;location;lat;lon;timestamp;P1;durP1;ratioP1;P2;durP2;ratioP2
25123;SDS011;13104;51.030;4.686;2023-04-29T00:00:01;65.75;;;31.40;;
25123;SDS011;13104;51.030;4.686;2023-04-29T00:02:28;64.82;;;33.63;;
25123;SDS011;13104;51.030;4.686;2023-04-29T00:04:55;67.88;;;32.92;;
25123;SDS011;13104;51.030;4.686;2023-04-29T00:07:21;61.30;;;33.08;;
25123;SDS011;13104;51.030;4.686;2023-04-29T00:09:47;67.10;;;33.20;;
25123;SDS011;13104;51.030;4.686;2023-04-29T00:12:14;63.95;;;33.47;;
25123;SDS011;13104;51.030;4.686;2023-04-29T00:14:40;66.57;;;34.75;;
25123;SDS011;13104;51.030;4.686;2023-04-29T00:17:07;64.53;;;34.33;;
25123;SDS011;13104;51.030;4.686;2023-04-29T00:19:34;69.07;;;34.75;;
25123;SDS011;13104;51.030;4.686;2023-04-29T00:22:00;67.22;;;33.67;;
25123;SDS011;13104;51.030;4.686;2023-04-29T00:24:26;67.70;;;35.28;;
25123;SDS011;13104;51.030;4.686;2023-04-29T00:26:52;63.25;;;32.25;;
25123;SDS011;13104;51.030;4.686;2023-04-29T00:29:18;70.85;;;33.67;;
25123;SDS011;13104;51.030;4.686;2023-04-29T00:31:44;65.47;;;34.00;;
25123;SDS011;13104;51.030;4.686;2023-04-29T00:34:11;67.32;;;33.95;;
25123;SDS011;13104;51.030;4.686;2023-04-29T00:36:37;63.45;;;33.72;;
25123;SDS011;13104;51.030;4.686;2023-04-29T00:39:03;63.90;;;31.45;;
25123;SDS011;13104;51.030;4.686;2023-04-29T00:41:29;62.85;;;31.67;;
25123;SDS011;13104;51.030;4.686;2023-04-29T00:43:56;75.80;;;33.55;;
25123;SDS011;13104;51.030;4.686;2023-04-29T00:46:22;62.40;;;31.60;;
25123;SDS011;13104;51.030;4.686;2023-04-29T00:48:48;71.80;;;33.22;;
25123;SDS011;13104;51.030;4.686;2023-04-29T00:51:15;63.40;;;33.28;;
25123;SDS011;13104;51.030;4.686;2023-04-29T00:53:42;68.00;;;33.65;;
25123;SDS011;13104;51.030;4.686;2023-04-29T00:56:08;67.20;;;31.75;;
25123;SDS011;13104;51.030;4.686;2023-04-29T00:58:35;62.08;;;31.42;;
25123;SDS011;13104;51.030;4.686;2023-04-29T01:01:03;65.80;;;32.83;;
25123;SDS011;13104;51.030;4.686;2023-04-29T01:03:30;73.55;;;33.72;;
25123;SDS011;13104;51.030;4.686;2023-04-29T01:06:57;67.63;;;32.63;;
25123;SDS011;13104;51.030;4.686;2023-04-29T01:11:41;80.15;;;34.55;;
25123;SDS011;13104;51.030;4.686;2023-04-29T01:14:10;74.70;;;35.33;;
25123;SDS011;13104;51.030;4.686;2023-04-29T01:16:37;70.95;;;34.17;;
25123;SDS011;13104;51.030;4.686;2023-04-29T01:19:15;71.72;;;33.67;;
25123;SDS011;13104;51.030;4.686;2023-04-29T01:21:45;73.60;;;34.15;;
25123;SDS011;13104;51.030;4.686;2023-04-29T01:24:15;75.60;;;34.65;;
25123;SDS011;13104;51.030;4.686;2023-04-29T01:26:43;70.85;;;34.10;;
25123;SDS011;13104;51.030;4.686;2023-04-29T01:31:57;68.20;;;36.13;;
25123;SDS011;13104;51.030;4.686;2023-04-29T01:36:59;81.30;;;38.65;;
25123;SDS011;13104;51.030;4.686;2023-04-29T01:39:32;74.95;;;39.45;;
25123;SDS011;13104;51.030;4.686;2023-04-29T01:42:04;71.50;;;37.35;;
25123;SDS011;13104;51.030;4.686;2023-04-29T01:44:31;66.32;;;36.30;;
25123;SDS011;13104;51.030;4.686;2023-04-29T01:46:57;64.55;;;36.53;;
25123;SDS011;13104;51.030;4.686;2023-04-29T01:49:24;72.45;;;37.78;;
25123;SDS011;13104;51.030;4.686;2023-04-29T01:51:50;75.40;;;35.42;;
25123;SDS011;13104;51.030;4.686;2023-04-29T01:54:17;61.47;;;35.13;;
25123;SDS011;13104;51.030;4.686;2023-04-29T01:56:43;61.80;;;34.80;;
25123;SDS011;13104;51.030;4.686;2023-04-29T01:59:09;60.50;;;36.05;;
25123;SDS011;13104;51.030;4.686;2023-04-29T02:01:35;56.67;;;34.58;;
25123;SDS011;13104;51.030;4.686;2023-04-29T02:04:02;53.70;;;30.50;;
25123;SDS011;13104;51.030;4.686;2023-04-29T02:06:28;57.28;;;30.65;;
25123;SDS011;13104;51.030;4.686;2023-04-29T02:08:56;49.58;;;29.95;;
25123;SDS011;13104;51.030;4.686;2023-04-29T02:11:23;53.08;;;29.02;;
25123;SDS011;13104;51.030;4.686;2023-04-29T02:13:49;53.40;;;28.63;;
25123;SDS011;13104;51.030;4.686;2023-04-29T02:16:16;52.65;;;28.67;;
25123;SDS011;13104;51.030;4.686;2023-04-29T02:18:42;51.53;;;30.55;;
25123;SDS011;13104;51.030;4.686;2023-04-29T02:21:09;50.90;;;27.48;;
25123;SDS011;13104;51.030;4.686;2023-04-29T02:23:36;43.67;;;25.90;;
25123;SDS011;13104;51.030;4.686;2023-04-29T02:26:03;47.65;;;25.95;;
25123;SDS011;13104;51.030;4.686;2023-04-29T02:28:33;43.83;;;25.63;;
25123;SDS011;13104;51.030;4.686;2023-04-29T02:30:59;43.47;;;25.17;;
25123;SDS011;13104;51.030;4.686;2023-04-29T02:33:25;41.00;;;25.10;;
25123;SDS011;13104;51.030;4.686;2023-04-29T02:35:52;50.78;;;27.85;;
25123;SDS011;13104;51.030;4.686;2023-04-29T02:38:18;46.05;;;26.27;;
25123;SDS011;13104;51.030;4.686;2023-04-29T02:40:45;54.72;;;28.98;;
25123;SDS011;13104;51.030;4.686;2023-04-29T02:43:11;53.95;;;30.92;;
25123;SDS011;13104;51.030;4.686;2023-04-29T02:45:38;60.58;;;32.15;;
25123;SDS011;13104;51.030;4.686;2023-04-29T02:48:04;59.05;;;32.60;;
25123;SDS011;13104;51.030;4.686;2023-04-29T02:50:31;60.55;;;34.30;;
25123;SDS011;13104;51.030;4.686;2023-04-29T02:52:58;53.00;;;31.27;;
25123;SDS011;13104;51.030;4.686;2023-04-29T02:55:24;56.35;;;30.42;;
25123;SDS011;13104;51.030;4.686;2023-04-29T02:57:51;56.92;;;31.33;;
25123;SDS011;13104;51.030;4.686;2023-04-29T03:00:17;57.05;;;29.48;;
25123;SDS011;13104;51.030;4.686;2023-04-29T03:02:43;61.22;;;31.98;;
25123;SDS011;13104;51.030;4.686;2023-04-29T03:05:09;59.47;;;31.02;;
25123;SDS011;13104;51.030;4.686;2023-04-29T03:07:35;55.05;;;30.92;;
25123;SDS011;13104;51.030;4.686;2023-04-29T03:10:01;58.30;;;31.65;;
25123;SDS011;13104;51.030;4.686;2023-04-29T03:12:27;64.38;;;31.80;;
25123;SDS011;13104;51.030;4.686;2023-04-29T03:14:53;54.38;;;30.52;;
25123;SDS011;13104;51.030;4.686;2023-04-29T03:17:19;56.17;;;30.77;;
25123;SDS011;13104;51.030;4.686;2023-04-29T03:19:47;50.10;;;29.27;;
25123;SDS011;13104;51.030;4.686;2023-04-29T03:22:13;60.85;;;30.45;;
25123;SDS011;13104;51.030;4.686;2023-04-29T03:24:39;50.15;;;29.40;;
25123;SDS011;13104;51.030;4.686;2023-04-29T03:27:05;48.72;;;28.38;;
25123;SDS011;13104;51.030;4.686;2023-04-29T03:29:31;53.08;;;32.58;;
25123;SDS011;13104;51.030;4.686;2023-04-29T03:31:57;65.38;;;35.03;;
25123;SDS011;13104;51.030;4.686;2023-04-29T03:34:24;69.03;;;37.20;;
25123;SDS011;13104;51.030;4.686;2023-04-29T03:36:50;68.20;;;38.08;;
25123;SDS011;13104;51.030;4.686;2023-04-29T03:39:16;80.25;;;36.90;;
25123;SDS011;13104;51.030;4.686;2023-04-29T03:41:43;84.05;;;38.70;;
25123;SDS011;13104;51.030;4.686;2023-04-29T03:44:09;75.93;;;37.70;;
25123;SDS011;13104;51.030;4.686;2023-04-29T03:46:35;71.88;;;38.35;;
25123;SDS011;13104;51.030;4.686;2023-04-29T03:49:01;79.50;;;37.95;;
25123;SDS011;13104;51.030;4.686;2023-04-29T03:51:27;71.63;;;36.65;;
25123;SDS011;13104;51.030;4.686;2023-04-29T03:53:53;75.63;;;37.22;;
25123;SDS011;13104;51.030;4.686;2023-04-29T03:56:23;71.38;;;37.80;;
25123;SDS011;13104;51.030;4.686;2023-04-29T03:58:50;74.85;;;36.78;;
25123;SDS011;13104;51.030;4.686;2023-04-29T04:01:16;75.68;;;35.58;;
25123;SDS011;13104;51.030;4.686;2023-04-29T04:03:43;65.35;;;33.47;;
25123;SDS011;13104;51.030;4.686;2023-04-29T04:06:09;65.32;;;33.67;;
25123;SDS011;13104;51.030;4.686;2023-04-29T04:08:35;69.30;;;34.90;;
25123;SDS011;13104;51.030;4.686;2023-04-29T04:11:02;68.88;;;35.20;;
25123;SDS011;13104;51.030;4.686;2023-04-29T04:13:29;60.95;;;35.15;;
25123;SDS011;13104;51.030;4.686;2023-04-29T04:15:55;63.30;;;34.72;;
25123;SDS011;13104;51.030;4.686;2023-04-29T04:18:21;66.15;;;35.40;;
25123;SDS011;13104;51.030;4.686;2023-04-29T04:20:47;69.28;;;35.97;;
25123;SDS011;13104;51.030;4.686;2023-04-29T04:23:13;72.75;;;37.97;;
25123;SDS011;13104;51.030;4.686;2023-04-29T04:25:46;75.35;;;37.38;;
25123;SDS011;13104;51.030;4.686;2023-04-29T04:28:12;69.72;;;35.67;;
25123;SDS011;13104;51.030;4.686;2023-04-29T04:30:39;72.47;;;36.38;;
25123;SDS011;13104;51.030;4.686;2023-04-29T04:33:05;64.72;;;35.80;;
25123;SDS011;13104;51.030;4.686;2023-04-29T04:35:31;73.70;;;36.15;;
25123;SDS011;13104;51.030;4.686;2023-04-29T04:37:57;76.90;;;37.25;;
25123;SDS011;13104;51.030;4.686;2023-04-29T04:40:23;62.92;;;33.03;;
25123;SDS011;13104;51.030;4.686;2023-04-29T04:42:49;68.93;;;35.60;;
25123;SDS011;13104;51.030;4.686;2023-04-29T04:45:16;65.30;;;34.25;;
25123;SDS011;13104;51.030;4.686;2023-04-29T04:47:42;69.53;;;34.53;;
25123;SDS011;13104;51.030;4.686;2023-04-29T04:50:08;63.03;;;34.08;;
25123;SDS011;13104;51.030;4.686;2023-04-29T04:52:35;68.53;;;33.53;;
25123;SDS011;13104;51.030;4.686;2023-04-29T04:55:01;64.88;;;32.65;;
25123;SDS011;13104;51.030;4.686;2023-04-29T04:57:27;64.32;;;33.40;;
25123;SDS011;13104;51.030;4.686;2023-04-29T04:59:53;68.00;;;33.60;;
25123;SDS011;13104;51.030;4.686;2023-04-29T05:02:19;65.75;;;34.53;;
25123;SDS011;13104;51.030;4.686;2023-04-29T05:04:45;65.97;;;33.90;;
25123;SDS011;13104;51.030;4.686;2023-04-29T05:07:11;72.88;;;36.13;;
25123;SDS011;13104;51.030;4.686;2023-04-29T05:09:37;67.00;;;35.30;;
25123;SDS011;13104;51.030;4.686;2023-04-29T05:12:03;62.45;;;34.30;;
25123;SDS011;13104;51.030;4.686;2023-04-29T05:14:30;71.18;;;36.03;;
25123;SDS011;13104;51.030;4.686;2023-04-29T05:16:59;70.07;;;37.67;;
25123;SDS011;13104;51.030;4.686;2023-04-29T05:19:25;78.28;;;37.92;;
25123;SDS011;13104;51.030;4.686;2023-04-29T05:21:51;67.70;;;35.80;;
25123;SDS011;13104;51.030;4.686;2023-04-29T05:24:17;68.70;;;37.00;;
25123;SDS011;13104;51.030;4.686;2023-04-29T05:26:44;65.70;;;35.15;;
25123;SDS011;13104;51.030;4.686;2023-04-29T05:29:10;70.13;;;37.10;;
25123;SDS011;13104;51.030;4.686;2023-04-29T05:31:36;67.82;;;35.00;;
25123;SDS011;13104;51.030;4.686;2023-04-29T05:34:06;67.35;;;34.75;;
25123;SDS011;13104;51.030;4.686;2023-04-29T05:36:32;72.63;;;36.58;;
25123;SDS011;13104;51.030;4.686;2023-04-29T05:38:58;59.95;;;35.63;;
25123;SDS011;13104;51.030;4.686;2023-04-29T05:41:24;69.40;;;36.50;;
25123;SDS011;13104;51.030;4.686;2023-04-29T05:43:50;56.05;;;34.35;;
25123;SDS011;13104;51.030;4.686;2023-04-29T05:46:17;65.40;;;34.55;;
25123;SDS011;13104;51.030;4.686;2023-04-29T05:48:44;62.85;;;32.15;;
25123;SDS011;13104;51.030;4.686;2023-04-29T05:51:11;66.15;;;33.15;;
25123;SDS011;13104;51.030;4.686;2023-04-29T05:53:38;63.78;;;32.97;;
25123;SDS011;13104;51.030;4.686;2023-04-29T05:56:04;58.80;;;31.83;;
25123;SDS011;13104;51.030;4.686;2023-04-29T05:58:32;57.58;;;32.83;;
25123;SDS011;13104;51.030;4.686;2023-04-29T06:00:58;59.88;;;32.78;;
25123;SDS011;13104;51.030;4.686;2023-04-29T06:03:25;59.92;;;31.27;;
25123;SDS011;13104;51.030;4.686;2023-04-29T06:05:51;60.28;;;32.47;;
25123;SDS011;13104;51.030;4.686;2023-04-29T06:08:18;57.45;;;31.90;;
25123;SDS011;13104;51.030;4.686;2023-04-29T06:10:44;49.80;;;29.40;;
25123;SDS011;13104;51.030;4.686;2023-04-29T06:13:11;57.90;;;31.05;;
25123;SDS011;13104;51.030;4.686;2023-04-29T06:15:37;51.85;;;30.23;;
25123;SDS011;13104;51.030;4.686;2023-04-29T06:18:03;50.83;;;30.60;;
25123;SDS011;13104;51.030;4.686;2023-04-29T06:20:29;51.90;;;30.13;;
25123;SDS011;13104;51.030;4.686;2023-04-29T06:22:55;51.10;;;29.15;;
25123;SDS011;13104;51.030;4.686;2023-04-29T06:25:21;54.55;;;29.27;;
25123;SDS011;13104;51.030;4.686;2023-04-29T06:27:51;46.55;;;27.35;;
25123;SDS011;13104;51.030;4.686;2023-04-29T06:30:18;53.35;;;30.08;;
25123;SDS011;13104;51.030;4.686;2023-04-29T06:32:44;50.20;;;29.73;;
25123;SDS011;13104;51.030;4.686;2023-04-29T06:35:10;60.42;;;31.13;;
25123;SDS011;13104;51.030;4.686;2023-04-29T06:37:36;51.05;;;30.13;;
25123;SDS011;13104;51.030;4.686;2023-04-29T06:40:02;51.75;;;28.98;;
25123;SDS011;13104;51.030;4.686;2023-04-29T06:42:28;53.53;;;29.52;;
25123;SDS011;13104;51.030;4.686;2023-04-29T06:44:55;53.75;;;31.05;;
25123;SDS011;13104;51.030;4.686;2023-04-29T06:47:22;49.30;;;29.08;;
25123;SDS011;13104;51.030;4.686;2023-04-29T06:49:48;53.08;;;29.02;;
25123;SDS011;13104;51.030;4.686;2023-04-29T06:52:15;51.08;;;29.58;;
25123;SDS011;13104;51.030;4.686;2023-04-29T06:54:41;48.95;;;31.17;;
25123;SDS011;13104;51.030;4.686;2023-04-29T06:57:07;57.33;;;30.67;;
25123;SDS011;13104;51.030;4.686;2023-04-29T06:59:33;53.85;;;30.13;;
25123;SDS011;13104;51.030;4.686;2023-04-29T07:02:00;52.42;;;30.33;;
25123;SDS011;13104;51.030;4.686;2023-04-29T07:04:26;54.20;;;30.38;;
25123;SDS011;13104;51.030;4.686;2023-04-29T07:06:52;53.65;;;29.20;;
25123;SDS011;13104;51.030;4.686;2023-04-29T07:09:19;51.35;;;29.50;;
25123;SDS011;13104;51.030;4.686;2023-04-29T07:11:47;49.60;;;27.42;;
25123;SDS011;13104;51.030;4.686;2023-04-29T07:14:13;51.88;;;28.88;;
25123;SDS011;13104;51.030;4.686;2023-04-29T07:16:40;49.10;;;29.38;;
25123;SDS011;13104;51.030;4.686;2023-04-29T07:19:06;47.08;;;27.48;;
25123;SDS011;13104;51.030;4.686;2023-04-29T07:21:32;46.85;;;27.73;;
25123;SDS011;13104;51.030;4.686;2023-04-29T07:23:58;45.63;;;28.10;;
25123;SDS011;13104;51.030;4.686;2023-04-29T07:26:26;43.78;;;26.38;;
25123;SDS011;13104;51.030;4.686;2023-04-29T07:28:52;50.72;;;27.40;;
25123;SDS011;13104;51.030;4.686;2023-04-29T07:31:18;45.88;;;26.67;;
25123;SDS011;13104;51.030;4.686;2023-04-29T07:33:46;44.83;;;27.45;;
25123;SDS011;13104;51.030;4.686;2023-04-29T07:36:12;41.10;;;25.35;;
25123;SDS011;13104;51.030;4.686;2023-04-29T07:38:38;44.45;;;25.27;;
25123;SDS011;13104;51.030;4.686;2023-04-29T07:41:05;42.38;;;26.70;;
25123;SDS011;13104;51.030;4.686;2023-04-29T07:43:31;44.58;;;26.85;;
25123;SDS011;13104;51.030;4.686;2023-04-29T07:45:57;43.90;;;27.98;;
25123;SDS011;13104;51.030;4.686;2023-04-29T07:48:23;45.05;;;25.67;;
25123;SDS011;13104;51.030;4.686;2023-04-29T07:50:49;45.80;;;28.25;;
25123;SDS011;13104;51.030;4.686;2023-04-29T07:53:15;44.30;;;27.08;;
25123;SDS011;13104;51.030;4.686;2023-04-29T07:55:42;46.83;;;28.52;;
25123;SDS011;13104;51.030;4.686;2023-04-29T07:58:08;42.90;;;25.77;;
25123;SDS011;13104;51.030;4.686;2023-04-29T08:00:34;47.42;;;27.00;;
25123;SDS011;13104;51.030;4.686;2023-04-29T08:03:00;47.63;;;27.05;;
25123;SDS011;13104;51.030;4.686;2023-04-29T08:05:27;43.00;;;25.23;;
25123;SDS011;13104;51.030;4.686;2023-04-29T08:07:54;43.13;;;27.27;;
25123;SDS011;13104;51.030;4.686;2023-04-29T08:10:20;44.65;;;27.10;;
25123;SDS011;13104;51.030;4.686;2023-04-29T08:12:47;45.00;;;27.08;;
25123;SDS011;13104;51.030;4.686;2023-04-29T08:15:13;35.90;;;22.60;;
25123;SDS011;13104;51.030;4.686;2023-04-29T08:17:40;35.92;;;23.45;;
25123;SDS011;13104;51.030;4.686;2023-04-29T08:20:06;37.45;;;22.02;;
25123;SDS011;13104;51.030;4.686;2023-04-29T08:22:33;40.05;;;24.00;;
25123;SDS011;13104;51.030;4.686;2023-04-29T08:24:59;44.28;;;25.30;;
25123;SDS011;13104;51.030;4.686;2023-04-29T08:27:27;42.88;;;25.02;;
25123;SDS011;13104;51.030;4.686;2023-04-29T08:29:53;46.55;;;25.55;;
25123;SDS011;13104;51.030;4.686;2023-04-29T08:32:20;44.83;;;24.83;;
25123;SDS011;13104;51.030;4.686;2023-04-29T08:34:46;38.92;;;23.23;;
25123;SDS011;13104;51.030;4.686;2023-04-29T08:37:12;42.70;;;23.20;;
25123;SDS011;13104;51.030;4.686;2023-04-29T08:39:39;38.22;;;22.90;;
25123;SDS011;13104;51.030;4.686;2023-04-29T08:42:10;43.22;;;22.58;;
25123;SDS011;13104;51.030;4.686;2023-04-29T08:44:37;35.45;;;20.60;;
25123;SDS011;13104;51.030;4.686;2023-04-29T08:47:03;39.63;;;21.25;;
25123;SDS011;13104;51.030;4.686;2023-04-29T08:49:30;32.78;;;22.02;;
25123;SDS011;13104;51.030;4.686;2023-04-29T08:51:57;40.53;;;22.05;;
25123;SDS011;13104;51.030;4.686;2023-04-29T08:54:25;40.00;;;21.15;;
25123;SDS011;13104;51.030;4.686;2023-04-29T08:56:52;38.00;;;22.00;;
25123;SDS011;13104;51.030;4.686;2023-04-29T08:59:20;37.22;;;22.95;;
25123;SDS011;13104;51.030;4.686;2023-04-29T09:01:47;38.33;;;22.45;;
25123;SDS011;13104;51.030;4.686;2023-04-29T09:06:51;38.15;;;21.80;;
25123;SDS011;13104;51.030;4.686;2023-04-29T09:09:17;33.17;;;21.52;;
25123;SDS011;13104;51.030;4.686;2023-04-29T09:11:44;38.83;;;22.67;;
25123;SDS011;13104;51.030;4.686;2023-04-29T09:14:11;34.58;;;21.98;;
25123;SDS011;13104;51.030;4.686;2023-04-29T09:16:38;34.47;;;21.27;;
25123;SDS011;13104;51.030;4.686;2023-04-29T09:19:04;33.55;;;20.67;;
25123;SDS011;13104;51.030;4.686;2023-04-29T09:21:30;31.27;;;20.40;;
25123;SDS011;13104;51.030;4.686;2023-04-29T09:23:58;36.40;;;20.50;;
25123;SDS011;13104;51.030;4.686;2023-04-29T09:26:25;33.22;;;20.55;;
25123;SDS011;13104;51.030;4.686;2023-04-29T09:29:12;32.10;;;20.35;;
25123;SDS011;13104;51.030;4.686;2023-04-29T09:31:40;35.22;;;20.35;;
25123;SDS011;13104;51.030;4.686;2023-04-29T09:34:07;27.13;;;18.27;;
25123;SDS011;13104;51.030;4.686;2023-04-29T09:36:46;32.08;;;19.70;;
25123;SDS011;13104;51.030;4.686;2023-04-29T09:39:16;33.53;;;19.33;;
25123;SDS011;13104;51.030;4.686;2023-04-29T09:44:21;33.53;;;19.92;;
25123;SDS011;13104;51.030;4.686;2023-04-29T09:47:04;26.77;;;18.33;;
25123;SDS011;13104;51.030;4.686;2023-04-29T09:49:32;32.67;;;18.05;;
25123;SDS011;13104;51.030;4.686;2023-04-29T09:52:02;30.33;;;18.85;;
25123;SDS011;13104;51.030;4.686;2023-04-29T09:54:29;26.67;;;17.58;;
25123;SDS011;13104;51.030;4.686;2023-04-29T09:56:56;24.70;;;17.08;;
25123;SDS011;13104;51.030;4.686;2023-04-29T09:59:23;27.42;;;16.48;;
25123;SDS011;13104;51.030;4.686;2023-04-29T10:01:56;27.08;;;17.77;;
25123;SDS011;13104;51.030;4.686;2023-04-29T10:04:23;25.55;;;16.15;;
25123;SDS011;13104;51.030;4.686;2023-04-29T10:06:51;27.70;;;16.33;;
25123;SDS011;13104;51.030;4.686;2023-04-29T10:09:18;27.92;;;16.23;;
25123;SDS011;13104;51.030;4.686;2023-04-29T10:11:45;26.77;;;16.25;;
25123;SDS011;13104;51.030;4.686;2023-04-29T10:14:12;24.17;;;16.33;;
25123;SDS011;13104;51.030;4.686;2023-04-29T10:16:48;24.75;;;16.30;;
25123;SDS011;13104;51.030;4.686;2023-04-29T10:19:34;23.40;;;16.10;;
25123;SDS011;13104;51.030;4.686;2023-04-29T10:22:08;26.30;;;16.33;;
25123;SDS011;13104;51.030;4.686;2023-04-29T10:24:35;21.80;;;16.55;;
25123;SDS011;13104;51.030;4.686;2023-04-29T10:27:02;26.83;;;17.10;;
25123;SDS011;13104;51.030;4.686;2023-04-29T10:29:30;27.95;;;17.70;;
25123;SDS011;13104;51.030;4.686;2023-04-29T10:31:59;26.48;;;17.00;;
25123;SDS011;13104;51.030;4.686;2023-04-29T10:34:25;31.00;;;17.27;;
25123;SDS011;13104;51.030;4.686;2023-04-29T10:36:52;26.95;;;16.52;;
25123;SDS011;13104;51.030;4.686;2023-04-29T10:39:20;25.98;;;16.70;;
25123;SDS011;13104;51.030;4.686;2023-04-29T10:41:48;23.15;;;16.23;;
25123;SDS011;13104;51.030;4.686;2023-04-29T10:44:15;21.48;;;15.82;;
25123;SDS011;13104;51.030;4.686;2023-04-29T10:46:42;24.05;;;16.27;;
25123;SDS011;13104;51.030;4.686;2023-04-29T10:49:08;22.60;;;15.32;;
25123;SDS011;13104;51.030;4.686;2023-04-29T10:59:13;20.00;;;14.25;;
25123;SDS011;13104;51.030;4.686;2023-04-29T11:01:40;22.35;;;14.07;;
25123;SDS011;13104;51.030;4.686;2023-04-29T11:04:06;19.60;;;14.02;;
25123;SDS011;13104;51.030;4.686;2023-04-29T11:09:04;17.17;;;12.85;;
25123;SDS011;13104;51.030;4.686;2023-04-29T11:11:55;17.00;;;13.30;;
25123;SDS011;13104;51.030;4.686;2023-04-29T11:17:00;19.65;;;13.52;;
25123;SDS011;13104;51.030;4.686;2023-04-29T11:19:31;18.48;;;12.75;;
25123;SDS011;13104;51.030;4.686;2023-04-29T11:22:10;17.00;;;12.68;;
25123;SDS011;13104;51.030;4.686;2023-04-29T11:24:56;20.77;;;13.57;;
25123;SDS011;13104;51.030;4.686;2023-04-29T11:27:25;19.05;;;13.52;;
25123;SDS011;13104;51.030;4.686;2023-04-29T11:29:53;16.40;;;12.95;;
25123;SDS011;13104;51.030;4.686;2023-04-29T11:32:24;18.20;;;12.57;;
25123;SDS011;13104;51.030;4.686;2023-04-29T11:34:51;18.52;;;12.95;;
25123;SDS011;13104;51.030;4.686;2023-04-29T11:37:24;21.10;;;14.38;;
25123;SDS011;13104;51.030;4.686;2023-04-29T11:39:50;20.48;;;13.63;;
25123;SDS011;13104;51.030;4.686;2023-04-29T11:42:20;18.42;;;13.70;;
25123;SDS011;13104;51.030;4.686;2023-04-29T11:44:49;18.80;;;13.68;;
25123;SDS011;13104;51.030;4.686;2023-04-29T11:47:16;17.50;;;13.05;;
25123;SDS011;13104;51.030;4.686;2023-04-29T11:49:42;20.80;;;13.93;;
25123;SDS011;13104;51.030;4.686;2023-04-29T11:52:08;20.67;;;14.02;;
25123;SDS011;13104;51.030;4.686;2023-04-29T11:54:35;19.23;;;14.90;;
25123;SDS011;13104;51.030;4.686;2023-04-29T11:57:01;19.40;;;14.10;;
25123;SDS011;13104;51.030;4.686;2023-04-29T11:59:29;19.77;;;14.35;;
25123;SDS011;13104;51.030;4.686;2023-04-29T12:01:59;22.60;;;13.77;;
25123;SDS011;13104;51.030;4.686;2023-04-29T12:04:25;20.83;;;14.45;;
25123;SDS011;13104;51.030;4.686;2023-04-29T12:06:51;20.83;;;14.50;;
25123;SDS011;13104;51.030;4.686;2023-04-29T12:09:18;25.42;;;14.68;;
25123;SDS011;13104;51.030;4.686;2023-04-29T12:11:44;21.98;;;14.45;;
25123;SDS011;13104;51.030;4.686;2023-04-29T12:14:14;18.55;;;13.48;;
25123;SDS011;13104;51.030;4.686;2023-04-29T12:16:41;18.63;;;13.45;;
25123;SDS011;13104;51.030;4.686;2023-04-29T12:19:07;19.60;;;13.02;;
25123;SDS011;13104;51.030;4.686;2023-04-29T12:21:34;20.05;;;14.10;;
25123;SDS011;13104;51.030;4.686;2023-04-29T12:24:01;20.80;;;13.48;;
25123;SDS011;13104;51.030;4.686;2023-04-29T12:26:28;20.25;;;12.57;;
25123;SDS011;13104;51.030;4.686;2023-04-29T12:28:58;19.40;;;13.43;;
25123;SDS011;13104;51.030;4.686;2023-04-29T12:31:33;19.95;;;13.15;;
25123;SDS011;13104;51.030;4.686;2023-04-29T12:34:01;20.38;;;13.32;;
25123;SDS011;13104;51.030;4.686;2023-04-29T12:36:28;18.38;;;13.18;;
25123;SDS011;13104;51.030;4.686;2023-04-29T12:38:54;19.42;;;12.50;;
25123;SDS011;13104;51.030;4.686;2023-04-29T12:41:34;18.63;;;10.88;;
25123;SDS011;13104;51.030;4.686;2023-04-29T12:44:00;15.57;;;10.95;;
25123;SDS011;13104;51.030;4.686;2023-04-29T12:46:28;17.00;;;12.05;;
25123;SDS011;13104;51.030;4.686;2023-04-29T12:49:00;15.57;;;11.45;;
25123;SDS011;13104;51.030;4.686;2023-04-29T12:51:28;15.63;;;11.48;;
25123;SDS011;13104;51.030;4.686;2023-04-29T12:53:56;16.15;;;11.07;;
25123;SDS011;13104;51.030;4.686;2023-04-29T12:56:22;19.58;;;11.60;;
25123;SDS011;13104;51.030;4.686;2023-04-29T12:58:48;20.23;;;11.80;;
25123;SDS011;13104;51.030;4.686;2023-04-29T13:01:15;15.90;;;11.20;;
25123;SDS011;13104;51.030;4.686;2023-04-29T13:03:41;17.88;;;11.07;;
25123;SDS011;13104;51.030;4.686;2023-04-29T13:06:07;16.08;;;11.15;;
25123;SDS011;13104;51.030;4.686;2023-04-29T13:08:33;17.35;;;10.88;;
25123;SDS011;13104;51.030;4.686;2023-04-29T13:10:59;15.13;;;10.30;;
25123;SDS011;13104;51.030;4.686;2023-04-29T13:13:25;18.33;;;11.32;;
25123;SDS011;13104;51.030;4.686;2023-04-29T13:15:51;14.63;;;10.48;;
25123;SDS011;13104;51.030;4.686;2023-04-29T13:18:18;19.90;;;10.43;;
25123;SDS011;13104;51.030;4.686;2023-04-29T13:20:44;15.63;;;11.45;;
25123;SDS011;13104;51.030;4.686;2023-04-29T13:23:10;16.23;;;11.73;;
25123;SDS011;13104;51.030;4.686;2023-04-29T13:25:36;16.73;;;10.65;;
25123;SDS011;13104;51.030;4.686;2023-04-29T13:28:03;15.10;;;10.75;;
25123;SDS011;13104;51.030;4.686;2023-04-29T13:30:29;15.75;;;9.50;;
25123;SDS011;13104;51.030;4.686;2023-04-29T13:32:56;15.85;;;9.40;;
25123;SDS011;13104;51.030;4.686;2023-04-29T13:35:22;14.25;;;9.73;;
25123;SDS011;13104;51.030;4.686;2023-04-29T13:37:48;16.58;;;11.65;;
25123;SDS011;13104;51.030;4.686;2023-04-29T13:40:15;14.60;;;11.35;;
25123;SDS011;13104;51.030;4.686;2023-04-29T13:42:41;15.88;;;11.18;;
25123;SDS011;13104;51.030;4.686;2023-04-29T13:45:07;18.70;;;11.75;;
25123;SDS011;13104;51.030;4.686;2023-04-29T13:47:33;18.33;;;11.40;;
25123;SDS011;13104;51.030;4.686;2023-04-29T13:50:00;18.33;;;11.25;;
25123;SDS011;13104;51.030;4.686;2023-04-29T13:52:26;18.75;;;11.02;;
25123;SDS011;13104;51.030;4.686;2023-04-29T13:54:54;17.83;;;10.80;;
25123;SDS011;13104;51.030;4.686;2023-04-29T13:57:20;18.40;;;10.88;;
25123;SDS011;13104;51.030;4.686;2023-04-29T13:59:46;15.13;;;9.35;;
25123;SDS011;13104;51.030;4.686;2023-04-29T14:02:12;18.60;;;10.27;;
25123;SDS011;13104;51.030;4.686;2023-04-29T14:04:39;16.63;;;9.82;;
25123;SDS011;13104;51.030;4.686;2023-04-29T14:07:05;13.45;;;9.57;;
25123;SDS011;13104;51.030;4.686;2023-04-29T14:09:31;15.13;;;9.23;;
25123;SDS011;13104;51.030;4.686;2023-04-29T14:11:57;13.77;;;10.25;;
25123;SDS011;13104;51.030;4.686;2023-04-29T14:14:24;10.88;;;8.80;;
25123;SDS011;13104;51.030;4.686;2023-04-29T14:16:50;15.25;;;10.10;;
25123;SDS011;13104;51.030;4.686;2023-04-29T14:19:16;15.75;;;9.25;;
25123;SDS011;13104;51.030;4.686;2023-04-29T14:21:42;13.38;;;8.95;;
25123;SDS011;13104;51.030;4.686;2023-04-29T14:24:08;13.65;;;9.98;;
25123;SDS011;13104;51.030;4.686;2023-04-29T14:26:34;14.20;;;8.85;;
25123;SDS011;13104;51.030;4.686;2023-04-29T14:29:01;15.35;;;9.32;;
25123;SDS011;13104;51.030;4.686;2023-04-29T14:31:28;14.48;;;7.93;;
25123;SDS011;13104;51.030;4.686;2023-04-29T14:33:54;11.35;;;7.90;;
25123;SDS011;13104;51.030;4.686;2023-04-29T14:36:20;11.60;;;7.68;;
25123;SDS011;13104;51.030;4.686;2023-04-29T14:38:47;12.45;;;7.80;;
25123;SDS011;13104;51.030;4.686;2023-04-29T14:41:13;12.23;;;7.35;;
25123;SDS011;13104;51.030;4.686;2023-04-29T14:43:39;9.27;;;7.05;;
25123;SDS011;13104;51.030;4.686;2023-04-29T14:46:07;11.27;;;7.10;;
25123;SDS011;13104;51.030;4.686;2023-04-29T14:48:33;9.57;;;7.35;;